Time;durP1;ratioP1;P1;durP2;ratioP2;P2;SDS_P1;SDS_P2;PMS_P1;PMS_P2;Temp;Humidity;BMP_temperature;BMP_pressure;BME280_temperature;BME280_humidity;BME280_pressure;Samples;Min_cycle;Max_cycle;Signal;HPM_P1;HPM_P2
2024/03/28 00:01:44;;;;;;;16.20;6.32;;;;;;;;;;6056179;23;20034;-81
2024/03/28 00:04:09;;;;;;;11.15;6.18;;;;;;;;;;6079070;23;20456;-81
2024/03/28 00:06:35;;;;;;;16.65;7.03;;;;;;;;;;6078835;23;20014;-82
2024/03/28 00:09:01;;;;;;;11.52;6.15;;;;;;;;;;6056195;23;20013;-82
2024/03/28 00:11:27;;;;;;;14.60;5.97;;;;;;;;;;6078571;23;20020;-81
2024/03/28 00:13:54;;;;;;;10.60;6.28;;;;;;;;;;6104468;23;20014;-81
2024/03/28 00:16:20;;;;;;;11.27;6.80;;;;;;;;;;6078967;23;20006;-82
2024/03/28 00:18:45;;;;;;;11.30;5.85;;;;;;;;;;6081734;23;20011;-82
2024/03/28 00:21:13;;;;;;;16.50;7.55;;;;;;;;;;6109319;23;20006;-80
2024/03/28 00:23:39;;;;;;;13.70;7.30;;;;;;;;;;6086849;23;20037;-80
2024/03/28 00:26:04;;;;;;;14.73;7.35;;;;;;;;;;6087543;23;20033;-82
2024/03/28 00:28:30;;;;;;;16.40;7.38;;;;;;;;;;6112329;23;20441;-80
2024/03/28 00:30:56;;;;;;;14.05;6.90;;;;;;;;;;6039407;23;20019;-81
2024/03/28 00:33:22;;;;;;;18.50;6.82;;;;;;;;;;6112430;23;20008;-82
2024/03/28 00:35:48;;;;;;;14.75;7.50;;;;;;;;;;6112586;23;20026;-79
2024/03/28 00:38:14;;;;;;;15.85;7.57;;;;;;;;;;6086945;23;20049;-82
2024/03/28 00:40:47;;;;;;;13.07;7.35;;;;;;;;;;6084589;23;20010;-81
2024/03/28 00:43:16;;;;;;;16.20;8.00;;;;;;;;;;6110240;23;20010;-83
2024/03/28 00:45:42;;;;;;;19.50;8.88;;;;;;;;;;6088976;23;20093;-83
2024/03/28 00:48:08;;;;;;;14.27;7.45;;;;;;;;;;6105827;23;20448;-82
2024/03/28 00:50:33;;;;;;;16.98;8.18;;;;;;;;;;6080059;23;20010;-81
2024/03/28 00:52:59;;;;;;;18.35;9.38;;;;;;;;;;6080173;23;20002;-81
2024/03/28 00:55:29;;;;;;;13.38;8.70;;;;;;;;;;6080336;23;20003;-82
2024/03/28 00:57:55;;;;;;;18.15;9.82;;;;;;;;;;6081388;23;20033;-82
2024/03/28 01:00:21;;;;;;;13.98;8.75;;;;;;;;;;6081893;23;20002;-82
2024/03/28 01:02:47;;;;;;;13.93;9.02;;;;;;;;;;6105388;23;20006;-82
2024/03/28 01:05:15;;;;;;;15.38;8.90;;;;;;;;;;6105502;23;20093;-81
2024/03/28 01:07:41;;;;;;;19.25;9.75;;;;;;;;;;6082271;23;20030;-82
2024/03/28 01:10:07;;;;;;;17.23;9.93;;;;;;;;;;6082149;23;20093;-81
2024/03/28 01:12:33;;;;;;;19.23;10.30;;;;;;;;;;6082314;23;20093;-82
2024/03/28 01:14:58;;;;;;;17.17;10.45;;;;;;;;;;6081426;23;20010;-80
2024/03/28 01:17:24;;;;;;;18.58;11.43;;;;;;;;;;6080461;23;20006;-80
2024/03/28 01:19:50;;;;;;;24.90;10.93;;;;;;;;;;6057381;23;20310;-81
2024/03/28 01:22:16;;;;;;;21.38;12.85;;;;;;;;;;6057424;23;20074;-82
2024/03/28 01:24:42;;;;;;;19.88;11.65;;;;;;;;;;6105179;23;20011;-80
2024/03/28 01:27:08;;;;;;;20.27;12.30;;;;;;;;;;6082775;23;20033;-81
2024/03/28 01:29:35;;;;;;;22.25;11.60;;;;;;;;;;6081731;23;20021;-81
2024/03/28 01:32:01;;;;;;;20.67;12.38;;;;;;;;;;6106675;23;20064;-80
2024/03/28 01:34:27;;;;;;;20.48;13.02;;;;;;;;;;6079092;23;20003;-81
2024/03/28 01:36:54;;;;;;;22.40;13.23;;;;;;;;;;6053346;23;20095;-81
2024/03/28 01:39:19;;;;;;;20.65;13.60;;;;;;;;;;6052398;23;20014;-82
2024/03/28 01:41:51;;;;;;;20.27;13.52;;;;;;;;;;6078465;23;20404;-82
2024/03/28 01:44:17;;;;;;;24.67;15.18;;;;;;;;;;6082066;23;20064;-81
2024/03/28 01:46:46;;;;;;;18.70;12.90;;;;;;;;;;6080574;23;20349;-81
2024/03/28 01:49:12;;;;;;;22.30;13.68;;;;;;;;;;6081499;23;20071;-82
2024/03/28 01:51:39;;;;;;;19.98;13.63;;;;;;;;;;6081996;23;20410;-82
2024/03/28 01:54:06;;;;;;;21.23;13.95;;;;;;;;;;6082810;23;20093;-81
2024/03/28 01:56:31;;;;;;;28.45;17.15;;;;;;;;;;6036205;23;20014;-81
2024/03/28 01:58:57;;;;;;;26.67;16.80;;;;;;;;;;6110151;23;20133;-82
2024/03/28 02:01:24;;;;;;;31.85;20.42;;;;;;;;;;6083259;23;20014;-81
2024/03/28 02:03:49;;;;;;;33.15;20.77;;;;;;;;;;6056400;23;20354;-80
2024/03/28 02:06:15;;;;;;;37.30;24.02;;;;;;;;;;6105194;23;20017;-81
2024/03/28 02:08:40;;;;;;;42.58;25.70;;;;;;;;;;6081369;23;20348;-82
2024/03/28 02:11:09;;;;;;;45.38;27.08;;;;;;;;;;6061503;23;20070;-82
2024/03/28 02:13:35;;;;;;;41.20;26.10;;;;;;;;;;6083931;23;20023;-83
2024/03/28 02:16:00;;;;;;;46.83;28.08;;;;;;;;;;6085022;23;20376;-81
2024/03/28 02:18:28;;;;;;;47.90;29.25;;;;;;;;;;6060634;23;20037;-82
2024/03/28 02:20:54;;;;;;;38.80;22.73;;;;;;;;;;6107212;23;20042;-82
2024/03/28 02:23:23;;;;;;;22.83;13.85;;;;;;;;;;6107116;23;20011;-82
2024/03/28 02:25:48;;;;;;;12.35;7.47;;;;;;;;;;6080970;23;20047;-81
2024/03/28 02:28:15;;;;;;;12.73;4.45;;;;;;;;;;6103596;23;20014;-81
2024/03/28 02:30:41;;;;;;;6.03;2.83;;;;;;;;;;6056351;23;20030;-81
2024/03/28 02:33:07;;;;;;;4.32;2.38;;;;;;;;;;6080614;23;20514;-81
2024/03/28 02:35:33;;;;;;;10.43;3.70;;;;;;;;;;6079402;23;20006;-80
2024/03/28 02:37:59;;;;;;;4.07;2.08;;;;;;;;;;6103900;23;20010;-80
2024/03/28 02:40:25;;;;;;;7.40;2.10;;;;;;;;;;6079261;23;20017;-81
2024/03/28 02:42:51;;;;;;;5.00;1.98;;;;;;;;;;6078786;23;20018;-81
2024/03/28 02:45:17;;;;;;;4.05;1.50;;;;;;;;;;6079164;23;20011;-82
2024/03/28 02:47:43;;;;;;;2.13;1.15;;;;;;;;;;6079866;23;20074;-80
2024/03/28 02:50:08;;;;;;;3.95;1.27;;;;;;;;;;6105735;23;20006;-80
2024/03/28 02:52:35;;;;;;;1.40;0.80;;;;;;;;;;6084994;23;20106;-81
2024/03/28 02:55:02;;;;;;;1.98;0.93;;;;;;;;;;6060652;23;20016;-81
2024/03/28 02:57:27;;;;;;;1.48;0.70;;;;;;;;;;6058180;23;20034;-82
2024/03/28 02:59:53;;;;;;;1.05;0.40;;;;;;;;;;6079306;23;20013;-81
2024/03/28 03:02:19;;;;;;;0.90;0.40;;;;;;;;;;6103478;23;20007;-81
2024/03/28 03:04:46;;;;;;;1.52;0.50;;;;;;;;;;6103356;23;20355;-82
2024/03/28 03:07:12;;;;;;;0.45;0.20;;;;;;;;;;6079930;23;20011;-80
2024/03/28 03:09:41;;;;;;;0.45;0.30;;;;;;;;;;6115905;23;20014;-81
2024/03/28 03:12:07;;;;;;;1.00;0.40;;;;;;;;;;6094570;23;20025;-82
2024/03/28 03:14:33;;;;;;;0.60;0.25;;;;;;;;;;6085635;23;20018;-81
2024/03/28 03:17:00;;;;;;;0.93;0.40;;;;;;;;;;6061560;23;20006;-82
2024/03/28 03:19:26;;;;;;;0.45;0.30;;;;;;;;;;6107538;23;20010;-81
2024/03/28 03:21:53;;;;;;;0.40;0.30;;;;;;;;;;6081899;23;20095;-81
2024/03/28 03:24:19;;;;;;;0.60;0.20;;;;;;;;;;6057581;23;20444;-81
2024/03/28 03:26:49;;;;;;;1.02;0.52;;;;;;;;;;6081178;23;20010;-82
2024/03/28 03:34:46;;;;;;;1.23;0.60;;;;;;;;;;6105039;23;20010;-81
2024/03/28 03:37:18;;;;;;;2.78;0.60;;;;;;;;;;6102905;23;20010;-80
2024/03/28 03:39:44;;;;;;;1.15;0.40;;;;;;;;;;6078038;23;20011;-81
2024/03/28 03:42:10;;;;;;;1.25;0.50;;;;;;;;;;6030019;23;20377;-81
2024/03/28 03:44:37;;;;;;;0.88;0.43;;;;;;;;;;6077730;23;20010;-83
2024/03/28 03:47:02;;;;;;;1.30;0.50;;;;;;;;;;6076814;23;20524;-81
2024/03/28 03:49:28;;;;;;;4.68;0.68;;;;;;;;;;6052490;23;20018;-80
2024/03/28 03:51:53;;;;;;;0.95;0.47;;;;;;;;;;6076517;23;20014;-80
2024/03/28 03:54:20;;;;;;;0.60;0.45;;;;;;;;;;6077152;23;20017;-81
2024/03/28 03:56:46;;;;;;;0.70;0.43;;;;;;;;;;6078206;23;20010;-80
2024/03/28 03:59:12;;;;;;;1.13;0.60;;;;;;;;;;6079700;23;20006;-80
2024/03/28 04:01:38;;;;;;;0.93;0.55;;;;;;;;;;6103759;23;20333;-81
2024/03/28 04:04:04;;;;;;;0.93;0.55;;;;;;;;;;6079184;23;20351;-81
2024/03/28 04:06:30;;;;;;;0.68;0.50;;;;;;;;;;6103871;23;20034;-81
2024/03/28 04:08:57;;;;;;;2.05;0.75;;;;;;;;;;6080141;23;20018;-81
2024/03/28 04:11:22;;;;;;;0.68;0.50;;;;;;;;;;6079867;23;20011;-82
2024/03/28 04:13:48;;;;;;;1.13;0.85;;;;;;;;;;6080194;23;20081;-80
2024/03/28 04:16:15;;;;;;;1.38;0.55;;;;;;;;;;6082727;23;20011;-81
2024/03/28 04:18:41;;;;;;;0.73;0.57;;;;;;;;;;6056503;23;20017;-82
2024/03/28 04:21:07;;;;;;;0.77;0.45;;;;;;;;;;6082221;23;20015;-82
2024/03/28 04:23:33;;;;;;;1.55;0.50;;;;;;;;;;6081110;23;20013;-82
2024/03/28 04:25:59;;;;;;;0.77;0.50;;;;;;;;;;6082687;23;20125;-81
2024/03/28 04:28:26;;;;;;;1.23;0.60;;;;;;;;;;6082268;23;20010;-81
2024/03/28 04:30:52;;;;;;;0.82;0.60;;;;;;;;;;6057906;23;20033;-80
2024/03/28 04:33:18;;;;;;;1.17;0.60;;;;;;;;;;6084520;23;20010;-81
2024/03/28 04:35:47;;;;;;;1.35;0.75;;;;;;;;;;6082559;23;20013;-82
2024/03/28 04:38:14;;;;;;;1.33;0.60;;;;;;;;;;6084164;23;20006;-81
2024/03/28 04:40:41;;;;;;;0.95;0.60;;;;;;;;;;6083207;23;20006;-81
2024/03/28 04:43:06;;;;;;;0.90;0.60;;;;;;;;;;6082814;23;20015;-82
2024/03/28 04:45:36;;;;;;;1.00;0.60;;;;;;;;;;6081257;23;20538;-82
2024/03/28 04:48:02;;;;;;;1.30;0.70;;;;;;;;;;6082822;23;20010;-82
2024/03/28 04:50:28;;;;;;;1.65;0.77;;;;;;;;;;6083742;23;20014;-81
2024/03/28 04:52:54;;;;;;;1.98;0.60;;;;;;;;;;6083665;23;20063;-81
2024/03/28 04:55:20;;;;;;;1.42;0.60;;;;;;;;;;6084186;23;20014;-82
2024/03/28 04:57:47;;;;;;;2.00;0.90;;;;;;;;;;6088432;23;20450;-82
2024/03/28 05:00:13;;;;;;;1.25;0.68;;;;;;;;;;6062710;23;20017;-83
2024/03/28 05:02:38;;;;;;;3.67;0.85;;;;;;;;;;6086474;23;20010;-81
2024/03/28 05:05:05;;;;;;;1.90;0.93;;;;;;;;;;6110988;23;20011;-80
2024/03/28 05:07:32;;;;;;;2.70;0.95;;;;;;;;;;6111809;23;20010;-82
2024/03/28 05:09:59;;;;;;;3.85;0.95;;;;;;;;;;6083651;23;20034;-81
2024/03/28 05:12:28;;;;;;;2.42;1.20;;;;;;;;;;6066660;23;20075;-82
2024/03/28 05:14:54;;;;;;;1.80;1.00;;;;;;;;;;6090094;23;20014;-83
2024/03/28 05:17:20;;;;;;;3.13;0.93;;;;;;;;;;6113366;23;20384;-82
2024/03/28 05:19:45;;;;;;;2.13;1.02;;;;;;;;;;6063935;23;20019;-81
2024/03/28 05:22:11;;;;;;;2.13;1.15;;;;;;;;;;6087533;23;20074;-82
2024/03/28 05:24:37;;;;;;;1.80;0.93;;;;;;;;;;6080784;23;20014;-82
2024/03/28 05:27:03;;;;;;;3.33;1.10;;;;;;;;;;6084189;23;20014;-83
2024/03/28 05:29:29;;;;;;;2.17;1.20;;;;;;;;;;6084875;23;20030;-82
2024/03/28 05:31:55;;;;;;;2.17;1.10;;;;;;;;;;6085222;23;20034;-84
2024/03/28 05:34:20;;;;;;;1.75;1.00;;;;;;;;;;6085727;23;20022;-80
2024/03/28 05:36:46;;;;;;;4.32;1.75;;;;;;;;;;6084601;23;20029;-81
2024/03/28 05:39:19;;;;;;;2.97;1.40;;;;;;;;;;6082113;23;20011;-83
2024/03/28 05:41:45;;;;;;;2.55;1.33;;;;;;;;;;6082133;23;20042;-82
2024/03/28 05:44:11;;;;;;;2.85;1.20;;;;;;;;;;6110072;23;20017;-82
2024/03/28 05:46:39;;;;;;;2.58;1.20;;;;;;;;;;6084443;23;20070;-81
2024/03/28 05:49:05;;;;;;;1.83;1.00;;;;;;;;;;6104995;23;20038;-80
2024/03/28 05:51:46;;;;;;;2.88;1.30;;;;;;;;;;6086051;23;20013;-81
2024/03/28 05:54:12;;;;;;;2.83;1.25;;;;;;;;;;6086453;23;20019;-83
2024/03/28 05:56:37;;;;;;;2.38;1.10;;;;;;;;;;6059961;23;20017;-80
2024/03/28 05:59:03;;;;;;;2.53;1.00;;;;;;;;;;6082670;23;20010;-81
2024/03/28 06:01:29;;;;;;;3.85;1.48;;;;;;;;;;6077607;23;20011;-80
2024/03/28 06:03:55;;;;;;;2.63;1.00;;;;;;;;;;6077402;23;20460;-80
2024/03/28 06:06:20;;;;;;;4.50;1.23;;;;;;;;;;6078318;23;20102;-81
2024/03/28 06:08:48;;;;;;;5.85;1.35;;;;;;;;;;6102563;23;20094;-79
2024/03/28 06:11:13;;;;;;;2.35;1.25;;;;;;;;;;6056213;23;20006;-82
2024/03/28 06:13:39;;;;;;;2.63;1.20;;;;;;;;;;6078159;23;20077;-80
2024/03/28 06:16:04;;;;;;;2.30;1.10;;;;;;;;;;6078226;23;20034;-80
2024/03/28 06:18:32;;;;;;;2.90;1.13;;;;;;;;;;6078638;23;20006;-79
2024/03/28 06:21:04;;;;;;;2.40;1.17;;;;;;;;;;6103676;23;20003;-80
2024/03/28 06:23:30;;;;;;;2.80;1.25;;;;;;;;;;6080641;23;20010;-82
2024/03/28 06:26:00;;;;;;;3.92;1.20;;;;;;;;;;6077957;23;20408;-82
2024/03/28 06:28:28;;;;;;;5.03;1.50;;;;;;;;;;6081183;23;20010;-80
2024/03/28 06:30:56;;;;;;;3.13;1.30;;;;;;;;;;6081811;23;20006;-80
2024/03/28 06:33:25;;;;;;;2.00;1.02;;;;;;;;;;6082603;23;20007;-82
2024/03/28 06:35:52;;;;;;;2.35;1.05;;;;;;;;;;6081518;23;20338;-81
2024/03/28 06:38:18;;;;;;;2.45;1.20;;;;;;;;;;6087246;23;20010;-81
2024/03/28 06:40:44;;;;;;;2.80;1.20;;;;;;;;;;6087537;23;20017;-81
2024/03/28 06:43:10;;;;;;;3.92;1.40;;;;;;;;;;6111498;23;20010;-82
2024/03/28 06:45:37;;;;;;;2.78;1.38;;;;;;;;;;6086827;23;20017;-82
2024/03/28 06:48:04;;;;;;;2.25;1.10;;;;;;;;;;6039298;23;20048;-80
2024/03/28 06:50:30;;;;;;;2.70;1.10;;;;;;;;;;6092159;23;20070;-81
2024/03/28 06:52:57;;;;;;;2.47;1.27;;;;;;;;;;6092591;23;20010;-81
2024/03/28 06:55:23;;;;;;;5.22;1.48;;;;;;;;;;6068307;23;20006;-80
2024/03/28 06:57:49;;;;;;;2.35;1.10;;;;;;;;;;6094559;23;20017;-82
2024/03/28 07:00:15;;;;;;;2.45;1.20;;;;;;;;;;6071184;23;19986;-81
2024/03/28 07:02:40;;;;;;;2.30;1.05;;;;;;;;;;6118779;23;20006;-82
2024/03/28 07:05:06;;;;;;;3.40;1.40;;;;;;;;;;6095143;23;20011;-82
2024/03/28 07:07:31;;;;;;;3.70;1.02;;;;;;;;;;6119859;23;20014;-82
2024/03/28 07:09:57;;;;;;;4.22;1.58;;;;;;;;;;6094480;23;20007;-81
2024/03/28 07:12:23;;;;;;;2.83;1.50;;;;;;;;;;6070842;23;19999;-82
2024/03/28 07:14:49;;;;;;;2.35;0.93;;;;;;;;;;6120505;23;20038;-81
2024/03/28 07:17:15;;;;;;;2.83;0.90;;;;;;;;;;6118137;23;20006;-80
2024/03/28 07:19:41;;;;;;;3.47;1.00;;;;;;;;;;6086400;23;20038;-80
2024/03/28 07:22:08;;;;;;;6.28;0.95;;;;;;;;;;6077665;23;20010;-81
2024/03/28 07:24:34;;;;;;;2.47;0.77;;;;;;;;;;6076449;23;20013;-81
2024/03/28 07:27:00;;;;;;;6.57;1.10;;;;;;;;;;6076516;23;20006;-80
2024/03/28 07:29:26;;;;;;;1.65;0.75;;;;;;;;;;6077478;23;20014;-81
2024/03/28 07:31:52;;;;;;;2.67;0.90;;;;;;;;;;6102369;23;20010;-81
2024/03/28 07:34:18;;;;;;;1.13;0.60;;;;;;;;;;6077516;23;20037;-80
2024/03/28 07:36:43;;;;;;;2.83;0.95;;;;;;;;;;6078461;23;20010;-80
2024/03/28 07:39:11;;;;;;;1.88;0.70;;;;;;;;;;6033523;23;20352;-81
2024/03/28 07:41:37;;;;;;;2.05;1.00;;;;;;;;;;6081295;23;20477;-81
2024/03/28 07:44:02;;;;;;;3.38;0.93;;;;;;;;;;6077994;23;20011;-83
2024/03/28 07:46:28;;;;;;;4.28;1.08;;;;;;;;;;6076863;23;20065;-83
2024/03/28 07:48:53;;;;;;;2.85;1.15;;;;;;;;;;6078293;23;20093;-80
2024/03/28 07:51:19;;;;;;;3.80;1.30;;;;;;;;;;6076677;23;20352;-80
2024/03/28 07:53:44;;;;;;;5.07;1.58;;;;;;;;;;6076676;23;20081;-81
2024/03/28 07:56:11;;;;;;;5.93;1.52;;;;;;;;;;6101801;23;19999;-82
2024/03/28 07:58:38;;;;;;;2.72;1.30;;;;;;;;;;6083848;23;20076;-80
2024/03/28 08:01:08;;;;;;;2.90;1.25;;;;;;;;;;6083696;23;20014;-81
2024/03/28 08:03:35;;;;;;;5.03;1.63;;;;;;;;;;6081750;23;20010;-82
2024/03/28 08:06:01;;;;;;;3.08;1.60;;;;;;;;;;6053730;23;20022;-82
2024/03/28 08:08:26;;;;;;;3.45;1.50;;;;;;;;;;6076843;23;20042;-80
2024/03/28 08:10:52;;;;;;;4.40;1.40;;;;;;;;;;6074508;23;20034;-81
2024/03/28 08:13:18;;;;;;;2.78;1.50;;;;;;;;;;6074648;23;20014;-82
2024/03/28 08:15:44;;;;;;;3.53;1.60;;;;;;;;;;6075934;23;20014;-81
2024/03/28 08:18:09;;;;;;;3.10;1.60;;;;;;;;;;6077455;23;20057;-81
2024/03/28 08:20:36;;;;;;;3.78;1.77;;;;;;;;;;6076251;23;20037;-81
2024/03/28 08:23:02;;;;;;;3.67;2.00;;;;;;;;;;6076745;23;20014;-82
2024/03/28 08:25:29;;;;;;;4.07;1.67;;;;;;;;;;6077333;23;20010;-81
2024/03/28 08:27:56;;;;;;;3.67;1.75;;;;;;;;;;6102554;23;20002;-80
2024/03/28 08:30:22;;;;;;;3.60;1.77;;;;;;;;;;6082351;23;20046;-81
2024/03/28 08:32:48;;;;;;;3.25;1.70;;;;;;;;;;6106531;23;20010;-83
2024/03/28 08:35:13;;;;;;;3.13;1.80;;;;;;;;;;6082867;23;20007;-80
2024/03/28 08:37:40;;;;;;;3.30;1.90;;;;;;;;;;6084185;23;20012;-82
2024/03/28 08:40:09;;;;;;;3.28;1.95;;;;;;;;;;6078219;23;20040;-80
2024/03/28 08:42:44;;;;;;;4.03;2.08;;;;;;;;;;6075661;23;20355;-80
2024/03/28 08:45:13;;;;;;;7.72;2.10;;;;;;;;;;6076663;23;20010;-82
2024/03/28 08:47:45;;;;;;;4.60;2.20;;;;;;;;;;6031902;23;20042;-81
2024/03/28 08:50:14;;;;;;;3.92;1.75;;;;;;;;;;6051437;23;20014;-81
2024/03/28 08:52:40;;;;;;;9.45;2.70;;;;;;;;;;6078086;23;20414;-81
2024/03/28 08:55:10;;;;;;;3.70;2.03;;;;;;;;;;6102105;23;20093;-81
2024/03/28 08:57:37;;;;;;;6.30;2.30;;;;;;;;;;6078077;23;20006;-82
2024/03/28 09:00:10;;;;;;;3.03;1.85;;;;;;;;;;6078418;23;20006;-82
2024/03/28 09:02:36;;;;;;;3.60;2.10;;;;;;;;;;6079866;23;20014;-80
2024/03/28 09:05:03;;;;;;;3.90;2.13;;;;;;;;;;6080829;23;20038;-83
2024/03/28 09:07:29;;;;;;;3.65;1.85;;;;;;;;;;6082841;23;20106;-82
2024/03/28 09:09:55;;;;;;;5.90;2.25;;;;;;;;;;6079307;23;20011;-81
2024/03/28 09:12:21;;;;;;;3.42;1.73;;;;;;;;;;6077778;23;20062;-81
2024/03/28 09:14:46;;;;;;;4.50;2.33;;;;;;;;;;6076477;23;20011;-82
2024/03/28 09:17:12;;;;;;;3.30;1.90;;;;;;;;;;6079048;23;20014;-82
2024/03/28 09:19:38;;;;;;;4.93;2.17;;;;;;;;;;6078113;23;20014;-79
2024/03/28 09:22:03;;;;;;;4.88;1.88;;;;;;;;;;6102376;23;20010;-79
2024/03/28 09:24:32;;;;;;;3.20;1.65;;;;;;;;;;6076737;23;20037;-78
2024/03/28 09:26:57;;;;;;;3.25;1.40;;;;;;;;;;6102556;23;20010;-79
2024/03/28 09:29:24;;;;;;;8.38;2.60;;;;;;;;;;6078874;23;20102;-81
2024/03/28 09:31:50;;;;;;;4.05;2.00;;;;;;;;;;6078029;23;20090;-79
2024/03/28 09:34:16;;;;;;;2.83;1.73;;;;;;;;;;6102258;23;20068;-79
2024/03/28 09:36:42;;;;;;;5.72;2.20;;;;;;;;;;6077764;23;20010;-79
2024/03/28 09:39:08;;;;;;;3.95;1.80;;;;;;;;;;6076572;23;20006;-80
2024/03/28 09:41:34;;;;;;;3.45;1.90;;;;;;;;;;6053121;23;20045;-79
2024/03/28 09:44:10;;;;;;;4.65;2.13;;;;;;;;;;6078255;23;20074;-80
2024/03/28 09:46:45;;;;;;;4.78;2.00;;;;;;;;;;6100185;23;20018;-80
2024/03/28 09:49:12;;;;;;;4.35;1.88;;;;;;;;;;6078933;23;20325;-78
2024/03/28 09:51:38;;;;;;;4.38;1.90;;;;;;;;;;6078827;23;20046;-79
2024/03/28 09:54:08;;;;;;;3.70;1.55;;;;;;;;;;6099633;23;20002;-78
2024/03/28 09:56:34;;;;;;;4.20;1.98;;;;;;;;;;6099615;23;20073;-77
2024/03/28 09:59:00;;;;;;;2.83;1.80;;;;;;;;;;6101418;23;20030;-80
2024/03/28 10:01:31;;;;;;;7.38;1.55;;;;;;;;;;6076534;23;20460;-79
2024/03/28 10:04:20;;;;;;;2.78;1.58;;;;;;;;;;6057277;23;20390;-78
2024/03/28 10:06:45;;;;;;;;;;;;;;;;;;5999232;23;20015;-79
2024/03/28 10:09:13;;;;;;;2.88;1.60;;;;;;;;;;6027052;23;19902;-80
2024/03/28 10:11:40;;;;;;;4.10;1.77;;;;;;;;;;6027004;23;20134;-80
2024/03/28 10:14:15;;;;;;;3.67;1.70;;;;;;;;;;6004100;23;20019;-80
2024/03/28 10:16:43;;;;;;;2.17;1.30;;;;;;;;;;6020201;23;20035;-80
2024/03/28 10:19:08;;;;;;;5.70;1.80;;;;;;;;;;6045410;23;20036;-81
2024/03/28 10:21:36;;;;;;;3.17;1.70;;;;;;;;;;6049714;23;20530;-79
2024/03/28 10:24:14;;;;;;;4.32;1.80;;;;;;;;;;6047012;23;20326;-80
2024/03/28 10:26:40;;;;;;;3.70;1.80;;;;;;;;;;5999696;23;20067;-80
2024/03/28 10:29:09;;;;;;;6.63;1.40;;;;;;;;;;5998138;23;20019;-80
2024/03/28 10:31:34;;;;;;;4.13;1.27;;;;;;;;;;6047251;23;20086;-79
2024/03/28 10:34:02;;;;;;;4.95;1.33;;;;;;;;;;6024062;23;20043;-80
2024/03/28 10:36:28;;;;;;;3.55;1.42;;;;;;;;;;5993679;23;20059;-80
2024/03/28 10:39:02;;;;;;;2.95;1.33;;;;;;;;;;6016941;23;20038;-79
2024/03/28 10:41:31;;;;;;;2.67;1.50;;;;;;;;;;6040046;23;20011;-80
2024/03/28 10:43:59;;;;;;;5.93;2.03;;;;;;;;;;6062234;23;20374;-79
2024/03/28 10:46:26;;;;;;;5.15;1.67;;;;;;;;;;6073745;23;20014;-79
2024/03/28 10:48:53;;;;;;;3.28;1.33;;;;;;;;;;6050569;23;20022;-79
2024/03/28 10:51:30;;;;;;;2.70;1.17;;;;;;;;;;6074762;23;20069;-79
2024/03/28 10:54:01;;;;;;;2.90;1.13;;;;;;;;;;6073166;23;20013;-81
2024/03/28 10:56:30;;;;;;;2.10;1.23;;;;;;;;;;6073426;23;20463;-79
2024/03/28 10:58:56;;;;;;;;;;;;;;;;;;6075956;23;20010;-79
2024/03/28 11:01:22;;;;;;;3.45;1.00;;;;;;;;;;6098876;23;19912;-81
2024/03/28 11:03:47;;;;;;;1.63;0.88;;;;;;;;;;6074543;23;20066;-81
2024/03/28 11:06:14;;;;;;;1.17;0.60;;;;;;;;;;6099545;23;20003;-79
2024/03/28 11:08:40;;;;;;;1.58;0.80;;;;;;;;;;6075796;23;20459;-78
2024/03/28 11:11:06;;;;;;;4.25;1.08;;;;;;;;;;6103230;23;20011;-79
2024/03/28 11:13:32;;;;;;;3.15;0.80;;;;;;;;;;6055336;23;20121;-80
2024/03/28 11:16:05;;;;;;;2.25;0.65;;;;;;;;;;6084896;23;20003;-80
2024/03/28 11:18:32;;;;;;;2.97;0.77;;;;;;;;;;6080614;23;20041;-78
2024/03/28 11:20:58;;;;;;;3.78;0.70;;;;;;;;;;6075945;23;20007;-79
2024/03/28 11:23:24;;;;;;;2.33;0.75;;;;;;;;;;6075483;23;20070;-79
2024/03/28 11:25:50;;;;;;;3.63;0.90;;;;;;;;;;6098049;23;20318;-79
2024/03/28 11:28:15;;;;;;;4.65;0.88;;;;;;;;;;6098878;23;20081;-79
2024/03/28 11:30:54;;;;;;;4.35;1.00;;;;;;;;;;6096995;23;20556;-79
2024/03/28 11:33:33;;;;;;;2.03;0.85;;;;;;;;;;6073872;23;20073;-79
2024/03/28 11:35:59;;;;;;;2.70;0.88;;;;;;;;;;6097737;23;20086;-79
2024/03/28 11:38:25;;;;;;;3.35;1.00;;;;;;;;;;6073506;23;20363;-79
2024/03/28 11:40:52;;;;;;;3.20;1.00;;;;;;;;;;6075798;23;20010;-80
2024/03/28 11:43:19;;;;;;;2.08;0.90;;;;;;;;;;6099596;23;20069;-80
2024/03/28 11:45:49;;;;;;;4.18;1.27;;;;;;;;;;6074083;23;20523;-79
2024/03/28 11:48:14;;;;;;;3.00;1.10;;;;;;;;;;6074207;23;20014;-80
2024/03/28 11:50:41;;;;;;;3.75;1.17;;;;;;;;;;6075617;23;20038;-79
2024/03/28 11:53:07;;;;;;;3.75;0.90;;;;;;;;;;6073824;23;20038;-79
2024/03/28 11:55:38;;;;;;;2.83;1.17;;;;;;;;;;6072828;23;20349;-79
2024/03/28 11:58:04;;;;;;;2.42;0.98;;;;;;;;;;6072445;23;20045;-79
2024/03/28 12:00:30;;;;;;;2.28;1.00;;;;;;;;;;6097563;23;20341;-79
2024/03/28 12:02:56;;;;;;;3.70;0.95;;;;;;;;;;6100441;23;20014;-79
2024/03/28 12:05:22;;;;;;;1.92;0.80;;;;;;;;;;6075909;23;20438;-80
2024/03/28 12:07:48;;;;;;;4.50;1.00;;;;;;;;;;6100436;23;20002;-80
2024/03/28 12:10:17;;;;;;;1.92;0.80;;;;;;;;;;6073354;23;20006;-78
2024/03/28 12:12:43;;;;;;;3.70;0.90;;;;;;;;;;6024430;23;1144249;-79
2024/03/28 12:15:09;;;;;;;4.45;0.80;;;;;;;;;;6074623;23;20074;-79
2024/03/28 12:17:35;;;;;;;13.18;1.75;;;;;;;;;;6073847;23;20352;-80
2024/03/28 12:20:27;;;;;;;1.98;0.82;;;;;;;;;;6100017;23;20057;-78
2024/03/28 12:22:53;;;;;;;1.17;0.60;;;;;;;;;;6096889;23;20010;-80
2024/03/28 12:25:19;;;;;;;5.05;0.90;;;;;;;;;;6082298;23;20013;-82
2024/03/28 12:27:54;;;;;;;3.08;0.95;;;;;;;;;;6085391;23;20010;-82
2024/03/28 12:30:19;;;;;;;2.92;0.88;;;;;;;;;;6086567;23;20010;-80
2024/03/28 12:32:45;;;;;;;3.05;0.45;;;;;;;;;;6085882;23;20017;-82
2024/03/28 12:35:11;;;;;;;4.88;0.85;;;;;;;;;;6087726;23;20448;-80
2024/03/28 12:37:41;;;;;;;5.38;0.90;;;;;;;;;;6087893;23;20002;-80
2024/03/28 12:40:13;;;;;;;2.70;0.90;;;;;;;;;;6112941;23;20038;-80
2024/03/28 12:42:43;;;;;;;2.33;0.80;;;;;;;;;;6088479;23;20018;-80
2024/03/28 12:45:23;;;;;;;3.22;0.98;;;;;;;;;;6109790;23;20021;-81
2024/03/28 12:47:49;;;;;;;2.83;0.90;;;;;;;;;;6086032;23;20032;-81
2024/03/28 12:50:19;;;;;;;1.83;0.63;;;;;;;;;;6087740;23;20389;-81
2024/03/28 12:52:46;;;;;;;2.45;0.63;;;;;;;;;;6087915;23;20010;-81
2024/03/28 12:55:12;;;;;;;3.72;1.08;;;;;;;;;;6077842;23;20011;-82
2024/03/28 12:57:38;;;;;;;4.88;0.98;;;;;;;;;;6052468;23;20033;-83
2024/03/28 13:00:04;;;;;;;1.10;0.52;;;;;;;;;;6079709;23;20097;-83
2024/03/28 13:02:30;;;;;;;1.95;0.75;;;;;;;;;;6103655;23;20336;-80
2024/03/28 13:04:56;;;;;;;1.27;0.70;;;;;;;;;;6078416;23;20070;-81
2024/03/28 13:07:23;;;;;;;1.92;0.55;;;;;;;;;;6078746;23;20014;-81
2024/03/28 13:09:48;;;;;;;4.88;0.70;;;;;;;;;;6080258;23;20037;-81
2024/03/28 13:12:17;;;;;;;1.98;0.50;;;;;;;;;;6079946;23;20007;-80
2024/03/28 13:14:42;;;;;;;0.70;0.22;;;;;;;;;;6078306;23;20061;-82
2024/03/28 13:17:09;;;;;;;0.82;0.47;;;;;;;;;;6079173;23;20011;-80
2024/03/28 13:19:34;;;;;;;3.13;0.45;;;;;;;;;;6078285;23;20349;-80
2024/03/28 13:22:00;;;;;;;1.98;0.73;;;;;;;;;;6077827;23;20015;-81
2024/03/28 13:24:26;;;;;;;1.45;0.70;;;;;;;;;;6076968;23;20050;-80
2024/03/28 13:26:51;;;;;;;1.27;0.68;;;;;;;;;;6101773;23;20062;-80
2024/03/28 13:29:17;;;;;;;6.35;2.33;;;;;;;;;;6078974;23;20010;-81
2024/03/28 13:31:43;;;;;;;5.75;2.88;;;;;;;;;;6078495;23;20014;-81
2024/03/28 13:34:10;;;;;;;2.35;0.82;;;;;;;;;;6103052;23;20006;-81
2024/03/28 13:36:36;;;;;;;1.60;0.57;;;;;;;;;;6079560;23;20404;-81
2024/03/28 13:39:01;;;;;;;5.28;0.60;;;;;;;;;;6053566;23;20065;-82
2024/03/28 13:41:27;;;;;;;1.38;0.50;;;;;;;;;;6076488;23;20029;-81
2024/03/28 13:43:52;;;;;;;3.13;0.85;;;;;;;;;;6100997;23;20037;-81
2024/03/28 13:46:18;;;;;;;4.72;0.57;;;;;;;;;;6076614;23;20472;-82
2024/03/28 13:48:43;;;;;;;0.90;0.40;;;;;;;;;;6076494;23;20016;-81
2024/03/28 13:51:09;;;;;;;0.95;0.50;;;;;;;;;;6077200;23;20437;-80
2024/03/28 13:53:35;;;;;;;2.45;0.60;;;;;;;;;;6079772;23;20022;-81
2024/03/28 13:56:01;;;;;;;0.65;0.30;;;;;;;;;;6105702;23;20002;-81
2024/03/28 13:58:28;;;;;;;4.82;0.73;;;;;;;;;;6084775;23;20013;-82
2024/03/28 14:00:56;;;;;;;0.70;0.30;;;;;;;;;;6079699;23;20073;-81
2024/03/28 14:03:24;;;;;;;2.28;0.50;;;;;;;;;;6077588;23;20010;-81
2024/03/28 14:05:50;;;;;;;2.35;0.70;;;;;;;;;;6077331;23;20021;-81
2024/03/28 14:08:15;;;;;;;3.00;0.40;;;;;;;;;;6077551;23;20053;-81
2024/03/28 14:10:41;;;;;;;1.20;0.38;;;;;;;;;;6098684;23;20018;-81
2024/03/28 14:13:07;;;;;;;0.80;0.30;;;;;;;;;;6075347;23;20093;-82
2024/03/28 14:15:38;;;;;;;4.50;0.20;;;;;;;;;;6076315;23;20073;-81
2024/03/28 14:18:06;;;;;;;3.45;0.55;;;;;;;;;;6050627;23;20467;-81
2024/03/28 14:20:39;;;;;;;0.95;0.40;;;;;;;;;;6078936;23;20336;-80
2024/03/28 14:23:05;;;;;;;1.15;0.50;;;;;;;;;;6101809;23;20393;-81
2024/03/28 14:25:31;;;;;;;3.40;0.50;;;;;;;;;;6077565;23;20006;-82
2024/03/28 14:27:58;;;;;;;2.90;0.65;;;;;;;;;;6077702;23;20002;-82
2024/03/28 14:30:23;;;;;;;6.38;0.80;;;;;;;;;;6078049;23;20089;-82
2024/03/28 14:32:49;;;;;;;6.00;0.60;;;;;;;;;;6077260;23;20043;-82
2024/03/28 14:35:15;;;;;;;3.17;1.10;;;;;;;;;;6077225;23;20006;-81
2024/03/28 14:37:41;;;;;;;3.40;0.77;;;;;;;;;;6077229;23;20013;-81
2024/03/28 14:40:06;;;;;;;7.60;2.28;;;;;;;;;;6053162;23;20090;-81
2024/03/28 14:42:35;;;;;;;4.55;1.02;;;;;;;;;;6076750;23;20014;-82
2024/03/28 14:45:01;;;;;;;2.42;0.93;;;;;;;;;;6076772;23;20018;-82